LGAV/ATH METAR and TAF weather

Enter ICAO airport designator
Station Type Date Time Source
LGAV METAR 2020/10/29 17:20 UTC NOAA

LGAV 291720Z 28001KT 9999 FEW030 SCT070 16/14 Q1017 NOSIG


Station Type Date Time Source
LGAV Decoded METAR 2020/10/29 17:20 UTC NOAA

Athens Eleftherios Venizelos International Airport, Greece (LGAV) 37-56N 023-56E
Oct 29, 2020 - 01:20 PM EDT / 2020.10.29 1720 UTC
Wind: from the W (280 degrees) at 1 MPH (1 KT):0
Visibility: greater than 7 mile(s):0
Sky conditions: partly cloudy
Temperature: 60 F (16 C)
Dew Point: 57 F (14 C)
Relative Humidity: 87%
Pressure (altimeter): 30.03 in. Hg (1017 hPa)
ob: LGAV 291720Z 28001KT 9999 FEW030 SCT070 16/14 Q1017 NOSIG
cycle: 17

Station Type Date Time Source
LGAV TAF 2020/10/29 18:12 UTC NOAA

TAF TAF LGAV 291700Z 2918/3018 35010KT 9999 SCT020 BKN070
BECMG 2920/2922 VRB05KT
BECMG 3006/3008 02014KT

Example: see airport list